sensor_id;sensor_type;location;lat;lon;timestamp;pressure;altitude;pressure_sealevel;temperature;humidity
19526;BME280;9907;42.676;26.348;2023-12-04T00:00:26;99308.28;;;6.05;88.16
19526;BME280;9907;42.676;26.348;2023-12-04T00:02:52;99315.47;;;6.03;83.92
19526;BME280;9907;42.676;26.348;2023-12-04T00:05:17;99309.84;;;5.95;84.58
19526;BME280;9907;42.676;26.348;2023-12-04T00:07:43;99308.34;;;5.91;83.49
19526;BME280;9907;42.676;26.348;2023-12-04T00:10:08;99326.06;;;5.90;84.15
19526;BME280;9907;42.676;26.348;2023-12-04T00:12:34;99342.09;;;5.74;83.93
19526;BME280;9907;42.676;26.348;2023-12-04T00:14:59;99343.53;;;5.66;84.63
19526;BME280;9907;42.676;26.348;2023-12-04T00:17:25;99347.59;;;5.71;85.43
19526;BME280;9907;42.676;26.348;2023-12-04T00:19:50;99353.03;;;5.82;86.41
19526;BME280;9907;42.676;26.348;2023-12-04T00:22:16;99347.81;;;5.68;83.48
19526;BME280;9907;42.676;26.348;2023-12-04T00:24:42;99357.25;;;5.58;83.38
19526;BME280;9907;42.676;26.348;2023-12-04T00:27:07;99361.81;;;5.56;81.37
19526;BME280;9907;42.676;26.348;2023-12-04T00:29:33;99369.97;;;5.53;81.52
19526;BME280;9907;42.676;26.348;2023-12-04T00:31:58;99364.88;;;5.50;81.54
19526;BME280;9907;42.676;26.348;2023-12-04T00:34:24;99365.06;;;5.47;81.54
19526;BME280;9907;42.676;26.348;2023-12-04T00:36:49;99367.34;;;5.25;83.33
19526;BME280;9907;42.676;26.348;2023-12-04T00:39:15;99361.88;;;5.14;82.75
19526;BME280;9907;42.676;26.348;2023-12-04T00:41:41;99376.56;;;5.19;84.09
19526;BME280;9907;42.676;26.348;2023-12-04T00:44:07;99378.53;;;5.16;84.10
19526;BME280;9907;42.676;26.348;2023-12-04T00:46:32;99376.75;;;5.16;83.02
19526;BME280;9907;42.676;26.348;2023-12-04T00:48:58;99392.63;;;5.02;82.17
19526;BME280;9907;42.676;26.348;2023-12-04T00:51:23;99380.63;;;4.97;84.18
19526;BME280;9907;42.676;26.348;2023-12-04T00:53:49;99381.56;;;4.96;83.36
19526;BME280;9907;42.676;26.348;2023-12-04T00:56:14;99382.69;;;4.91;83.17
19526;BME280;9907;42.676;26.348;2023-12-04T00:58:40;99372.88;;;4.79;82.43
19526;BME280;9907;42.676;26.348;2023-12-04T01:01:06;99360.38;;;4.67;82.31
19526;BME280;9907;42.676;26.348;2023-12-04T01:03:31;99362.34;;;4.64;83.06
19526;BME280;9907;42.676;26.348;2023-12-04T01:05:59;99365.25;;;4.59;82.78
19526;BME280;9907;42.676;26.348;2023-12-04T01:08:24;99376.63;;;4.61;81.72
19526;BME280;9907;42.676;26.348;2023-12-04T01:10:50;99373.31;;;4.58;80.24
19526;BME280;9907;42.676;26.348;2023-12-04T01:13:15;99378.59;;;4.58;80.58
19526;BME280;9907;42.676;26.348;2023-12-04T01:15:41;99385.09;;;4.52;79.45
19526;BME280;9907;42.676;26.348;2023-12-04T01:18:07;99376.69;;;4.46;79.87
19526;BME280;9907;42.676;26.348;2023-12-04T01:20:33;99365.03;;;4.34;79.84
19526;BME280;9907;42.676;26.348;2023-12-04T01:22:59;99370.50;;;4.31;79.35
19526;BME280;9907;42.676;26.348;2023-12-04T01:25:24;99393.00;;;4.08;79.99
19526;BME280;9907;42.676;26.348;2023-12-04T01:27:50;99388.22;;;3.99;79.16
19526;BME280;9907;42.676;26.348;2023-12-04T01:30:16;99386.78;;;3.93;83.90
19526;BME280;9907;42.676;26.348;2023-12-04T01:32:41;99398.28;;;3.92;85.01
19526;BME280;9907;42.676;26.348;2023-12-04T01:35:07;99398.41;;;3.91;84.00
19526;BME280;9907;42.676;26.348;2023-12-04T01:37:32;99385.94;;;3.93;84.11
19526;BME280;9907;42.676;26.348;2023-12-04T01:39:58;99394.34;;;4.00;82.30
19526;BME280;9907;42.676;26.348;2023-12-04T01:42:23;99388.75;;;4.06;80.63
19526;BME280;9907;42.676;26.348;2023-12-04T01:44:49;99392.13;;;4.08;81.47
19526;BME280;9907;42.676;26.348;2023-12-04T01:47:15;99393.66;;;4.12;79.54
19526;BME280;9907;42.676;26.348;2023-12-04T01:49:42;99410.13;;;4.17;79.50
19526;BME280;9907;42.676;26.348;2023-12-04T01:52:07;99412.16;;;4.12;80.99
19526;BME280;9907;42.676;26.348;2023-12-04T01:54:33;99424.28;;;4.16;79.59
19526;BME280;9907;42.676;26.348;2023-12-04T01:56:58;99415.41;;;4.17;79.48
19526;BME280;9907;42.676;26.348;2023-12-04T01:59:25;99416.97;;;4.05;80.35
19526;BME280;9907;42.676;26.348;2023-12-04T02:01:52;99428.88;;;4.12;80.16
19526;BME280;9907;42.676;26.348;2023-12-04T02:04:18;99417.28;;;4.15;80.71
19526;BME280;9907;42.676;26.348;2023-12-04T02:06:43;99421.75;;;3.99;81.21
19526;BME280;9907;42.676;26.348;2023-12-04T02:09:09;99403.41;;;3.96;82.17
19526;BME280;9907;42.676;26.348;2023-12-04T02:11:38;99396.06;;;4.01;81.84
19526;BME280;9907;42.676;26.348;2023-12-04T02:14:05;99400.75;;;4.11;81.31
19526;BME280;9907;42.676;26.348;2023-12-04T02:16:31;99406.81;;;4.13;80.24
19526;BME280;9907;42.676;26.348;2023-12-04T02:18:58;99410.38;;;4.12;79.84
19526;BME280;9907;42.676;26.348;2023-12-04T02:21:23;99426.31;;;4.11;80.85
19526;BME280;9907;42.676;26.348;2023-12-04T02:23:51;99422.50;;;4.16;81.89
19526;BME280;9907;42.676;26.348;2023-12-04T02:26:22;99423.53;;;4.14;81.90
19526;BME280;9907;42.676;26.348;2023-12-04T02:28:54;99429.06;;;4.09;82.60
19526;BME280;9907;42.676;26.348;2023-12-04T02:31:21;99427.13;;;3.97;83.59
19526;BME280;9907;42.676;26.348;2023-12-04T02:33:52;99428.72;;;4.00;83.48
19526;BME280;9907;42.676;26.348;2023-12-04T02:36:19;99431.72;;;3.93;83.96
19526;BME280;9907;42.676;26.348;2023-12-04T02:38:46;99429.00;;;3.95;82.99
19526;BME280;9907;42.676;26.348;2023-12-04T02:41:12;99432.47;;;3.96;80.72
19526;BME280;9907;42.676;26.348;2023-12-04T02:43:37;99445.44;;;4.00;80.97
19526;BME280;9907;42.676;26.348;2023-12-04T02:46:03;99439.81;;;4.06;79.94
19526;BME280;9907;42.676;26.348;2023-12-04T02:48:29;99430.25;;;4.04;80.92
19526;BME280;9907;42.676;26.348;2023-12-04T02:50:54;99442.03;;;4.14;80.97
19526;BME280;9907;42.676;26.348;2023-12-04T02:53:20;99447.41;;;4.12;80.31
19526;BME280;9907;42.676;26.348;2023-12-04T02:55:45;99449.78;;;4.17;80.83
19526;BME280;9907;42.676;26.348;2023-12-04T02:58:11;99453.97;;;4.21;78.89
19526;BME280;9907;42.676;26.348;2023-12-04T03:00:36;99455.34;;;4.12;79.21
19526;BME280;9907;42.676;26.348;2023-12-04T03:03:02;99435.09;;;4.27;78.45
19526;BME280;9907;42.676;26.348;2023-12-04T03:05:28;99444.56;;;4.31;77.39
19526;BME280;9907;42.676;26.348;2023-12-04T03:07:53;99439.00;;;4.35;76.83
19526;BME280;9907;42.676;26.348;2023-12-04T03:10:18;99431.00;;;4.51;75.10
19526;BME280;9907;42.676;26.348;2023-12-04T03:12:44;99443.84;;;4.43;75.88
19526;BME280;9907;42.676;26.348;2023-12-04T03:15:10;99462.00;;;4.49;75.74
19526;BME280;9907;42.676;26.348;2023-12-04T03:17:36;99470.25;;;4.59;77.18
19526;BME280;9907;42.676;26.348;2023-12-04T03:20:02;99474.00;;;4.55;77.53
19526;BME280;9907;42.676;26.348;2023-12-04T03:22:28;99464.81;;;4.46;74.92
19526;BME280;9907;42.676;26.348;2023-12-04T03:24:54;99473.97;;;4.40;74.82
19526;BME280;9907;42.676;26.348;2023-12-04T03:27:19;99483.28;;;4.32;80.35
19526;BME280;9907;42.676;26.348;2023-12-04T03:29:45;99490.03;;;4.22;85.51
19526;BME280;9907;42.676;26.348;2023-12-04T03:32:10;99486.97;;;4.14;88.84
19526;BME280;9907;42.676;26.348;2023-12-04T03:34:36;99493.69;;;4.19;87.03
19526;BME280;9907;42.676;26.348;2023-12-04T03:37:01;99485.25;;;4.28;85.76
19526;BME280;9907;42.676;26.348;2023-12-04T03:39:27;99480.22;;;4.24;83.22
19526;BME280;9907;42.676;26.348;2023-12-04T03:41:52;99478.81;;;4.32;76.91
19526;BME280;9907;42.676;26.348;2023-12-04T03:44:18;99467.47;;;4.46;72.73
19526;BME280;9907;42.676;26.348;2023-12-04T03:46:43;99466.56;;;4.31;71.36
19526;BME280;9907;42.676;26.348;2023-12-04T03:49:09;99467.25;;;4.35;70.59
19526;BME280;9907;42.676;26.348;2023-12-04T03:51:34;99477.63;;;4.38;70.02
19526;BME280;9907;42.676;26.348;2023-12-04T03:54:00;99478.38;;;4.40;69.38
19526;BME280;9907;42.676;26.348;2023-12-04T03:56:25;99485.63;;;4.52;67.65
19526;BME280;9907;42.676;26.348;2023-12-04T03:58:51;99491.19;;;4.48;68.61
19526;BME280;9907;42.676;26.348;2023-12-04T04:01:16;99496.91;;;4.40;68.86
19526;BME280;9907;42.676;26.348;2023-12-04T04:03:42;99497.25;;;4.34;70.10
19526;BME280;9907;42.676;26.348;2023-12-04T04:06:08;99495.56;;;4.33;72.44
19526;BME280;9907;42.676;26.348;2023-12-04T04:08:34;99509.88;;;4.29;72.49
19526;BME280;9907;42.676;26.348;2023-12-04T04:10:59;99512.47;;;4.30;73.07
19526;BME280;9907;42.676;26.348;2023-12-04T04:13:25;99508.00;;;4.47;71.39
19526;BME280;9907;42.676;26.348;2023-12-04T04:15:50;99513.13;;;4.50;68.71
19526;BME280;9907;42.676;26.348;2023-12-04T04:18:16;99504.06;;;4.54;67.40
19526;BME280;9907;42.676;26.348;2023-12-04T04:20:42;99507.91;;;4.48;67.31
19526;BME280;9907;42.676;26.348;2023-12-04T04:23:07;99508.94;;;4.46;67.27
19526;BME280;9907;42.676;26.348;2023-12-04T04:25:33;99508.84;;;4.77;66.07
19526;BME280;9907;42.676;26.348;2023-12-04T04:27:58;99518.97;;;4.70;64.07
19526;BME280;9907;42.676;26.348;2023-12-04T04:30:23;99518.97;;;4.70;64.64
19526;BME280;9907;42.676;26.348;2023-12-04T04:32:49;99530.09;;;4.61;64.41
19526;BME280;9907;42.676;26.348;2023-12-04T04:35:15;99533.59;;;4.46;66.90
19526;BME280;9907;42.676;26.348;2023-12-04T04:37:40;99524.03;;;4.43;67.69
19526;BME280;9907;42.676;26.348;2023-12-04T04:40:06;99525.50;;;4.49;67.11
19526;BME280;9907;42.676;26.348;2023-12-04T04:42:32;99521.00;;;4.35;67.50
19526;BME280;9907;42.676;26.348;2023-12-04T04:44:57;99525.25;;;4.38;68.25
19526;BME280;9907;42.676;26.348;2023-12-04T04:47:23;99536.94;;;4.50;66.95
19526;BME280;9907;42.676;26.348;2023-12-04T04:49:48;99532.81;;;4.60;65.42
19526;BME280;9907;42.676;26.348;2023-12-04T04:52:14;99537.00;;;4.48;63.85
19526;BME280;9907;42.676;26.348;2023-12-04T04:54:39;99544.75;;;4.51;64.97
19526;BME280;9907;42.676;26.348;2023-12-04T04:57:05;99560.50;;;4.54;65.92
19526;BME280;9907;42.676;26.348;2023-12-04T04:59:30;99560.91;;;4.47;67.09
19526;BME280;9907;42.676;26.348;2023-12-04T05:01:57;99559.69;;;4.68;63.89
19526;BME280;9907;42.676;26.348;2023-12-04T05:04:23;99563.53;;;4.62;64.85
19526;BME280;9907;42.676;26.348;2023-12-04T05:06:48;99569.84;;;4.60;63.75
19526;BME280;9907;42.676;26.348;2023-12-04T05:09:14;99569.34;;;4.53;62.51
19526;BME280;9907;42.676;26.348;2023-12-04T05:11:39;99575.69;;;4.51;62.59
19526;BME280;9907;42.676;26.348;2023-12-04T05:14:05;99579.75;;;4.56;61.22
19526;BME280;9907;42.676;26.348;2023-12-04T05:16:30;99584.56;;;4.50;60.72
19526;BME280;9907;42.676;26.348;2023-12-04T05:18:56;99587.69;;;4.56;60.78
19526;BME280;9907;42.676;26.348;2023-12-04T05:21:21;99585.31;;;4.52;60.33
19526;BME280;9907;42.676;26.348;2023-12-04T05:23:47;99594.34;;;4.48;63.30
19526;BME280;9907;42.676;26.348;2023-12-04T05:26:12;99589.72;;;4.67;60.57
19526;BME280;9907;42.676;26.348;2023-12-04T05:28:38;99593.16;;;4.53;59.46
19526;BME280;9907;42.676;26.348;2023-12-04T05:31:04;99590.28;;;4.42;58.79
19526;BME280;9907;42.676;26.348;2023-12-04T05:33:30;99594.72;;;4.41;58.76
19526;BME280;9907;42.676;26.348;2023-12-04T05:35:55;99592.31;;;4.37;59.12
19526;BME280;9907;42.676;26.348;2023-12-04T05:38:21;99603.94;;;4.50;59.80
19526;BME280;9907;42.676;26.348;2023-12-04T05:40:49;99605.28;;;4.26;63.23
19526;BME280;9907;42.676;26.348;2023-12-04T05:43:15;99607.41;;;4.19;64.26
19526;BME280;9907;42.676;26.348;2023-12-04T05:45:40;99608.88;;;4.25;65.35
19526;BME280;9907;42.676;26.348;2023-12-04T05:48:06;99618.31;;;4.29;66.91
19526;BME280;9907;42.676;26.348;2023-12-04T05:50:31;99616.03;;;4.23;68.02
19526;BME280;9907;42.676;26.348;2023-12-04T05:52:57;99619.09;;;4.15;68.20
19526;BME280;9907;42.676;26.348;2023-12-04T05:55:24;99638.94;;;4.07;68.85
19526;BME280;9907;42.676;26.348;2023-12-04T05:57:49;99628.50;;;4.21;68.52
19526;BME280;9907;42.676;26.348;2023-12-04T06:00:15;99630.34;;;4.19;69.91
19526;BME280;9907;42.676;26.348;2023-12-04T06:02:44;99620.38;;;4.24;70.98
19526;BME280;9907;42.676;26.348;2023-12-04T06:05:10;99634.19;;;4.29;71.11
19526;BME280;9907;42.676;26.348;2023-12-04T06:07:36;99647.09;;;4.35;71.38
19526;BME280;9907;42.676;26.348;2023-12-04T06:10:43;99652.63;;;4.30;70.71
19526;BME280;9907;42.676;26.348;2023-12-04T06:13:10;99651.19;;;4.25;69.96
19526;BME280;9907;42.676;26.348;2023-12-04T06:15:36;99658.16;;;4.26;70.12
19526;BME280;9907;42.676;26.348;2023-12-04T06:18:04;99657.84;;;4.32;71.82
19526;BME280;9907;42.676;26.348;2023-12-04T06:20:30;99652.22;;;4.38;69.03
19526;BME280;9907;42.676;26.348;2023-12-04T06:22:58;99664.50;;;4.39;67.41
19526;BME280;9907;42.676;26.348;2023-12-04T06:25:24;99664.81;;;4.33;65.96
19526;BME280;9907;42.676;26.348;2023-12-04T06:27:53;99671.16;;;4.30;66.09
19526;BME280;9907;42.676;26.348;2023-12-04T06:30:19;99666.53;;;4.34;66.79
19526;BME280;9907;42.676;26.348;2023-12-04T06:35:44;99666.81;;;4.45;67.83
19526;BME280;9907;42.676;26.348;2023-12-04T06:38:31;99661.34;;;4.48;67.27
19526;BME280;9907;42.676;26.348;2023-12-04T06:41:09;99665.53;;;4.52;65.75
19526;BME280;9907;42.676;26.348;2023-12-04T06:46:30;99679.28;;;4.59;64.40
19526;BME280;9907;42.676;26.348;2023-12-04T06:48:59;99684.84;;;4.54;64.40
19526;BME280;9907;42.676;26.348;2023-12-04T06:51:25;99676.47;;;4.62;64.11
19526;BME280;9907;42.676;26.348;2023-12-04T06:53:51;99671.69;;;4.68;64.40
19526;BME280;9907;42.676;26.348;2023-12-04T06:56:21;99683.97;;;4.69;63.09
19526;BME280;9907;42.676;26.348;2023-12-04T06:58:47;99678.78;;;4.68;64.85
19526;BME280;9907;42.676;26.348;2023-12-04T07:01:13;99686.91;;;4.65;62.66
19526;BME280;9907;42.676;26.348;2023-12-04T07:06:47;99686.56;;;4.86;64.68
19526;BME280;9907;42.676;26.348;2023-12-04T07:09:41;99682.88;;;4.89;65.49
19526;BME280;9907;42.676;26.348;2023-12-04T07:19:02;99698.06;;;4.85;64.23
19526;BME280;9907;42.676;26.348;2023-12-04T07:21:29;99710.19;;;4.89;63.17
19526;BME280;9907;42.676;26.348;2023-12-04T07:23:55;99714.75;;;4.87;65.13
19526;BME280;9907;42.676;26.348;2023-12-04T07:26:38;99719.50;;;4.97;65.55
19526;BME280;9907;42.676;26.348;2023-12-04T07:29:06;99719.31;;;5.00;64.47
19526;BME280;9907;42.676;26.348;2023-12-04T07:31:42;99729.91;;;5.00;64.00
19526;BME280;9907;42.676;26.348;2023-12-04T07:34:07;99728.31;;;4.97;66.38
19526;BME280;9907;42.676;26.348;2023-12-04T07:36:33;99727.56;;;4.95;65.86
19526;BME280;9907;42.676;26.348;2023-12-04T07:39:01;99747.69;;;4.98;64.29
19526;BME280;9907;42.676;26.348;2023-12-04T07:41:27;99745.06;;;4.98;64.15
19526;BME280;9907;42.676;26.348;2023-12-04T07:43:52;99746.16;;;4.94;64.55
19526;BME280;9907;42.676;26.348;2023-12-04T07:46:19;99744.63;;;4.89;65.35
19526;BME280;9907;42.676;26.348;2023-12-04T07:48:45;99743.41;;;4.79;63.78
19526;BME280;9907;42.676;26.348;2023-12-04T07:51:13;99746.75;;;4.83;63.08
19526;BME280;9907;42.676;26.348;2023-12-04T07:53:39;99747.44;;;4.86;63.55
19526;BME280;9907;42.676;26.348;2023-12-04T07:56:05;99745.38;;;4.91;64.20
19526;BME280;9907;42.676;26.348;2023-12-04T07:58:31;99754.03;;;4.95;64.59
19526;BME280;9907;42.676;26.348;2023-12-04T08:00:57;99760.00;;;4.83;65.00
19526;BME280;9907;42.676;26.348;2023-12-04T08:03:23;99734.38;;;4.83;65.31
19526;BME280;9907;42.676;26.348;2023-12-04T08:05:50;99732.47;;;4.85;63.93
19526;BME280;9907;42.676;26.348;2023-12-04T08:08:16;99722.09;;;4.98;63.93
19526;BME280;9907;42.676;26.348;2023-12-04T08:10:41;99727.34;;;5.14;63.50
19526;BME280;9907;42.676;26.348;2023-12-04T08:13:07;99725.84;;;5.10;62.79
19526;BME280;9907;42.676;26.348;2023-12-04T08:15:33;99733.00;;;5.23;64.52
19526;BME280;9907;42.676;26.348;2023-12-04T08:17:58;99726.47;;;5.29;63.98
19526;BME280;9907;42.676;26.348;2023-12-04T08:20:24;99733.97;;;5.36;63.72
19526;BME280;9907;42.676;26.348;2023-12-04T08:22:49;99731.25;;;5.38;63.75
19526;BME280;9907;42.676;26.348;2023-12-04T08:25:15;99732.25;;;5.51;63.72
19526;BME280;9907;42.676;26.348;2023-12-04T08:27:40;99743.88;;;5.49;61.78
19526;BME280;9907;42.676;26.348;2023-12-04T08:30:06;99733.22;;;5.50;62.37
19526;BME280;9907;42.676;26.348;2023-12-04T08:32:32;99736.00;;;5.47;63.05
19526;BME280;9907;42.676;26.348;2023-12-04T08:34:58;99734.28;;;5.62;62.10
19526;BME280;9907;42.676;26.348;2023-12-04T08:37:23;99733.38;;;5.77;62.46
19526;BME280;9907;42.676;26.348;2023-12-04T08:39:49;99737.75;;;5.78;62.65
19526;BME280;9907;42.676;26.348;2023-12-04T08:42:14;99738.56;;;5.64;61.33
19526;BME280;9907;42.676;26.348;2023-12-04T08:44:40;99735.94;;;5.78;62.04
19526;BME280;9907;42.676;26.348;2023-12-04T08:47:05;99740.81;;;5.86;64.21
19526;BME280;9907;42.676;26.348;2023-12-04T08:49:31;99742.44;;;5.88;63.55
19526;BME280;9907;42.676;26.348;2023-12-04T08:51:58;99741.91;;;5.82;63.96
19526;BME280;9907;42.676;26.348;2023-12-04T08:54:24;99747.00;;;5.86;64.64
19526;BME280;9907;42.676;26.348;2023-12-04T08:56:50;99744.66;;;5.80;65.02
19526;BME280;9907;42.676;26.348;2023-12-04T08:59:16;99753.38;;;5.82;64.40
19526;BME280;9907;42.676;26.348;2023-12-04T09:01:42;99755.44;;;5.77;64.58
19526;BME280;9907;42.676;26.348;2023-12-04T09:04:09;99750.31;;;5.74;65.95
19526;BME280;9907;42.676;26.348;2023-12-04T09:06:37;99748.81;;;5.84;66.22
19526;BME280;9907;42.676;26.348;2023-12-04T09:09:11;99750.81;;;5.81;67.62
19526;BME280;9907;42.676;26.348;2023-12-04T09:11:41;99742.28;;;5.76;68.37
19526;BME280;9907;42.676;26.348;2023-12-04T09:14:08;99744.66;;;5.80;68.90
19526;BME280;9907;42.676;26.348;2023-12-04T09:16:36;99745.09;;;5.43;69.98
19526;BME280;9907;42.676;26.348;2023-12-04T09:19:02;99738.09;;;5.26;70.55
19526;BME280;9907;42.676;26.348;2023-12-04T09:21:30;99734.41;;;5.29;71.68
19526;BME280;9907;42.676;26.348;2023-12-04T09:23:58;99733.97;;;5.52;70.48
19526;BME280;9907;42.676;26.348;2023-12-04T09:26:24;99732.59;;;5.45;70.50
19526;BME280;9907;42.676;26.348;2023-12-04T09:28:49;99738.94;;;5.43;71.13
19526;BME280;9907;42.676;26.348;2023-12-04T09:31:18;99743.13;;;5.47;70.33
19526;BME280;9907;42.676;26.348;2023-12-04T09:33:54;99738.59;;;5.49;70.76
19526;BME280;9907;42.676;26.348;2023-12-04T09:36:19;99739.69;;;5.60;69.46
19526;BME280;9907;42.676;26.348;2023-12-04T09:38:45;99730.91;;;5.44;68.56
19526;BME280;9907;42.676;26.348;2023-12-04T09:41:12;99730.56;;;5.50;68.99
19526;BME280;9907;42.676;26.348;2023-12-04T09:43:37;99726.72;;;5.70;72.87
19526;BME280;9907;42.676;26.348;2023-12-04T09:46:07;99720.56;;;5.69;74.78
19526;BME280;9907;42.676;26.348;2023-12-04T09:48:34;99726.72;;;5.70;76.12
19526;BME280;9907;42.676;26.348;2023-12-04T09:51:00;99736.47;;;5.69;77.27
19526;BME280;9907;42.676;26.348;2023-12-04T09:53:30;99732.22;;;5.67;79.73
19526;BME280;9907;42.676;26.348;2023-12-04T09:55:59;99719.06;;;5.65;80.67
19526;BME280;9907;42.676;26.348;2023-12-04T09:58:27;99717.91;;;5.69;82.11
19526;BME280;9907;42.676;26.348;2023-12-04T10:00:54;99720.97;;;5.77;81.79
19526;BME280;9907;42.676;26.348;2023-12-04T10:03:20;99728.22;;;5.60;81.24
19526;BME280;9907;42.676;26.348;2023-12-04T10:05:54;99730.94;;;5.58;80.21
19526;BME280;9907;42.676;26.348;2023-12-04T10:08:19;99729.88;;;5.47;81.25
19526;BME280;9907;42.676;26.348;2023-12-04T10:10:45;99732.25;;;5.51;80.96
19526;BME280;9907;42.676;26.348;2023-12-04T10:13:11;99726.19;;;5.49;80.47
19526;BME280;9907;42.676;26.348;2023-12-04T10:15:50;99728.84;;;5.49;81.44
19526;BME280;9907;42.676;26.348;2023-12-04T10:18:30;99736.69;;;5.51;80.91
19526;BME280;9907;42.676;26.348;2023-12-04T10:20:59;99728.75;;;5.51;81.65
19526;BME280;9907;42.676;26.348;2023-12-04T10:23:38;99730.63;;;5.49;81.91
19526;BME280;9907;42.676;26.348;2023-12-04T10:26:15;99734.91;;;5.51;82.54
19526;BME280;9907;42.676;26.348;2023-12-04T10:28:58;99738.06;;;5.58;83.48
19526;BME280;9907;42.676;26.348;2023-12-04T10:31:24;99732.47;;;5.62;83.26
19526;BME280;9907;42.676;26.348;2023-12-04T10:33:50;99734.44;;;5.59;83.17
19526;BME280;9907;42.676;26.348;2023-12-04T10:36:18;99741.28;;;5.63;82.45
19526;BME280;9907;42.676;26.348;2023-12-04T10:38:44;99740.44;;;5.62;82.25
19526;BME280;9907;42.676;26.348;2023-12-04T10:41:13;99739.34;;;5.80;81.53
19526;BME280;9907;42.676;26.348;2023-12-04T10:43:47;99737.56;;;5.81;82.08
19526;BME280;9907;42.676;26.348;2023-12-04T10:46:15;99734.50;;;5.73;81.74
19526;BME280;9907;42.676;26.348;2023-12-04T10:48:45;99731.72;;;5.60;82.14
19526;BME280;9907;42.676;26.348;2023-12-04T10:51:12;99731.56;;;5.77;82.75
19526;BME280;9907;42.676;26.348;2023-12-04T10:53:38;99732.53;;;5.76;82.57
19526;BME280;9907;42.676;26.348;2023-12-04T10:56:07;99732.06;;;5.84;82.36
19526;BME280;9907;42.676;26.348;2023-12-04T10:58:34;99723.69;;;5.92;81.03
19526;BME280;9907;42.676;26.348;2023-12-04T11:01:01;99718.81;;;5.84;81.10
19526;BME280;9907;42.676;26.348;2023-12-04T11:03:45;99724.03;;;5.85;82.11
19526;BME280;9907;42.676;26.348;2023-12-04T11:06:16;99723.13;;;5.86;82.47
19526;BME280;9907;42.676;26.348;2023-12-04T11:08:42;99726.34;;;5.92;83.04
19526;BME280;9907;42.676;26.348;2023-12-04T11:11:21;99727.97;;;5.94;82.47
19526;BME280;9907;42.676;26.348;2023-12-04T11:13:54;99729.50;;;5.98;82.85
19526;BME280;9907;42.676;26.348;2023-12-04T11:16:35;99732.88;;;5.86;81.56
19526;BME280;9907;42.676;26.348;2023-12-04T11:19:11;99736.00;;;5.93;82.44
19526;BME280;9907;42.676;26.348;2023-12-04T11:21:40;99735.16;;;5.92;82.00
19526;BME280;9907;42.676;26.348;2023-12-04T11:24:07;99731.19;;;5.99;81.45
19526;BME280;9907;42.676;26.348;2023-12-04T11:26:34;99735.16;;;6.06;79.84
19526;BME280;9907;42.676;26.348;2023-12-04T11:29:01;99727.13;;;6.08;80.47
19526;BME280;9907;42.676;26.348;2023-12-04T11:31:28;99726.28;;;6.07;80.98
19526;BME280;9907;42.676;26.348;2023-12-04T11:34:01;99733.09;;;5.81;81.88
19526;BME280;9907;42.676;26.348;2023-12-04T11:36:27;99733.28;;;5.78;81.65
19526;BME280;9907;42.676;26.348;2023-12-04T11:38:53;99735.75;;;5.81;82.51
19526;BME280;9907;42.676;26.348;2023-12-04T11:41:22;99734.03;;;5.80;82.31
19526;BME280;9907;42.676;26.348;2023-12-04T11:43:49;99733.88;;;5.83;81.92
19526;BME280;9907;42.676;26.348;2023-12-04T11:46:25;99718.56;;;5.88;81.25
19526;BME280;9907;42.676;26.348;2023-12-04T11:49:37;99722.38;;;5.99;81.47
19526;BME280;9907;42.676;26.348;2023-12-04T11:54:18;99712.81;;;6.10;80.65
19526;BME280;9907;42.676;26.348;2023-12-04T11:59:39;99712.53;;;6.01;82.58
19526;BME280;9907;42.676;26.348;2023-12-04T12:02:09;99718.13;;;6.10;81.43
19526;BME280;9907;42.676;26.348;2023-12-04T12:04:38;99713.78;;;6.09;81.00
19526;BME280;9907;42.676;26.348;2023-12-04T12:07:07;99718.78;;;6.00;80.22
19526;BME280;9907;42.676;26.348;2023-12-04T12:09:33;99722.38;;;5.99;80.43
19526;BME280;9907;42.676;26.348;2023-12-04T12:12:03;99710.09;;;6.12;80.28
19526;BME280;9907;42.676;26.348;2023-12-04T12:14:30;99715.78;;;6.20;81.20
19526;BME280;9907;42.676;26.348;2023-12-04T12:17:00;99716.53;;;6.08;81.24
19526;BME280;9907;42.676;26.348;2023-12-04T12:19:26;99713.47;;;6.00;82.33
19526;BME280;9907;42.676;26.348;2023-12-04T12:21:52;99714.34;;;6.00;82.30
19526;BME280;9907;42.676;26.348;2023-12-04T12:24:18;99720.31;;;6.04;82.43
19526;BME280;9907;42.676;26.348;2023-12-04T12:26:44;99711.94;;;5.96;83.10
19526;BME280;9907;42.676;26.348;2023-12-04T12:29:13;99721.56;;;5.82;81.78
19526;BME280;9907;42.676;26.348;2023-12-04T12:31:39;99719.66;;;5.84;81.19
19526;BME280;9907;42.676;26.348;2023-12-04T12:34:05;99714.34;;;5.84;80.76
19526;BME280;9907;42.676;26.348;2023-12-04T12:36:31;99717.88;;;5.85;80.68
19526;BME280;9907;42.676;26.348;2023-12-04T12:38:59;99720.72;;;5.82;81.29
19526;BME280;9907;42.676;26.348;2023-12-04T12:41:25;99716.63;;;5.76;81.09
19526;BME280;9907;42.676;26.348;2023-12-04T12:43:52;99719.34;;;5.91;80.95
19526;BME280;9907;42.676;26.348;2023-12-04T12:46:18;99721.22;;;5.88;82.16
19526;BME280;9907;42.676;26.348;2023-12-04T12:48:44;99722.41;;;5.83;83.38
19526;BME280;9907;42.676;26.348;2023-12-04T12:51:10;99727.00;;;5.95;82.20
19526;BME280;9907;42.676;26.348;2023-12-04T12:53:36;99724.41;;;5.79;82.04
19526;BME280;9907;42.676;26.348;2023-12-04T12:56:03;99724.22;;;5.82;82.57
19526;BME280;9907;42.676;26.348;2023-12-04T12:58:29;99730.22;;;5.86;83.06
19526;BME280;9907;42.676;26.348;2023-12-04T13:00:55;99731.97;;;5.85;82.80
19526;BME280;9907;42.676;26.348;2023-12-04T13:03:21;99728.44;;;5.71;82.78
19526;BME280;9907;42.676;26.348;2023-12-04T13:05:47;99735.13;;;5.62;82.40
19526;BME280;9907;42.676;26.348;2023-12-04T13:08:13;99728.53;;;5.69;82.45
19526;BME280;9907;42.676;26.348;2023-12-04T13:10:40;99731.50;;;5.79;81.89
19526;BME280;9907;42.676;26.348;2023-12-04T13:13:13;99727.50;;;5.72;82.40
19526;BME280;9907;42.676;26.348;2023-12-04T13:15:40;99734.97;;;5.65;83.11
19526;BME280;9907;42.676;26.348;2023-12-04T13:18:06;99737.97;;;5.59;83.89
19526;BME280;9907;42.676;26.348;2023-12-04T13:20:32;99730.91;;;5.74;83.93
19526;BME280;9907;42.676;26.348;2023-12-04T13:22:57;99726.94;;;5.81;83.63
19526;BME280;9907;42.676;26.348;2023-12-04T13:25:23;99729.31;;;5.71;83.93
19526;BME280;9907;42.676;26.348;2023-12-04T13:27:48;99731.00;;;5.72;83.94
19526;BME280;9907;42.676;26.348;2023-12-04T13:30:14;99734.41;;;5.74;83.94